Aérodrome :
LOGIN :

S'inscrire | Disclaimer

   EN    FR    IT 

 










Légende :    VFR   VFR Marginal   IFR   IFR Intensif   IFR Très Intensif
Visi : 
Plafond : 
>= 8 km
>= 3000ft
5 à 8 km
1000 à 3000 ft
1500m à 5 km
500 à 1000 ft
800 à 1500m
200 à 500 ft
< 800m
< 200 ft
Symboles :   Orages  Brouillard  Fortes neiges  Fortes précipitations  Vent > 20 kt
SIGMETs :   Divers  Orages  Givrage  Turbulence  Onde Orograph.  Cendres Volcan.






- Altitude de l'aérodrome : 1487 ft
- Code IATA : MUC


EDDM - München Franz Josef Strauss

DERNIER METAR :
  • 041520Z 17006KT 9999 -RA FEW023 16/14 Q1014 NOSIG

METARs EXPIRÉS :
  • 041450Z 15005KT 120V190 9999 -RA FEW025 17/13 Q1014 NOSIG
  • 041420Z 16005KT 130V190 9999 -RA SCT025 17/13 Q1014 NOSIG
  • 041350Z 15003KT 090V210 9999 -RA SCT025 18/12 Q1014 NOSIG
  • 041320Z 16003KT 120V220 9999 SCT026 18/11 Q1014 NOSIG
  • 041250Z 16003KT 060V210 9999 SCT026 18/11 Q1014 NOSIG

TAF TAF EDDM
Valide du 04 à 12h jusqu'au 05 à 18h UTC


041100Z 0412/0518 17004KT 9999 SCT030
PROB30
TEMPO 0420/0424 RA
TEMPO 0500/0504 4000 RA BKN007
BECMG 0503/0506 27005KT
PROB30
TEMPO 0516/0518 TSRA BKN025CB



MET'MAP, la Météo Aéronautique d'un coup d'oeil ! - Copyright ORBIFLY Décembre 2007 - Disclaimer

ORBIFLY MET'MAP TEAM :

Programmation & Développement : Alexandra Zaïnal
Sur une idée originale de : Baudouin d'Aumeries
Assistance à la programmation : Marc-Olivier Méhu
Soutien technique & logistique : Manuel Goepfert

Contact : metmap@orbifly.com




SOURCES & CREDITS :

   NOAA